sensor_id;sensor_type;location;lat;lon;timestamp;P1;durP1;ratioP1;P2;durP2;ratioP2
58137;SDS011;43955;47.362;18.930;2023-03-12T00:00:53;4.95;;;2.45;;
58137;SDS011;43955;47.362;18.930;2023-03-12T00:03:20;3.72;;;2.30;;
58137;SDS011;43955;47.362;18.930;2023-03-12T00:05:47;7.80;;;2.97;;
58137;SDS011;43955;47.362;18.930;2023-03-12T00:08:15;4.87;;;2.45;;
58137;SDS011;43955;47.362;18.930;2023-03-12T00:10:42;7.12;;;3.03;;
58137;SDS011;43955;47.362;18.930;2023-03-12T00:13:09;5.80;;;2.92;;
58137;SDS011;43955;47.362;18.930;2023-03-12T00:15:37;5.50;;;2.75;;
58137;SDS011;43955;47.362;18.930;2023-03-12T00:18:05;4.43;;;2.12;;
58137;SDS011;43955;47.362;18.930;2023-03-12T00:20:32;5.15;;;2.37;;
58137;SDS011;43955;47.362;18.930;2023-03-12T00:22:59;4.05;;;2.50;;
58137;SDS011;43955;47.362;18.930;2023-03-12T00:25:27;6.68;;;3.03;;
58137;SDS011;43955;47.362;18.930;2023-03-12T00:27:54;7.75;;;3.70;;
58137;SDS011;43955;47.362;18.930;2023-03-12T00:30:21;7.45;;;4.03;;
58137;SDS011;43955;47.362;18.930;2023-03-12T00:32:49;8.05;;;4.15;;
58137;SDS011;43955;47.362;18.930;2023-03-12T00:35:16;8.13;;;3.50;;
58137;SDS011;43955;47.362;18.930;2023-03-12T00:37:43;5.18;;;2.67;;
58137;SDS011;43955;47.362;18.930;2023-03-12T00:40:11;3.80;;;2.42;;
58137;SDS011;43955;47.362;18.930;2023-03-12T00:42:39;5.75;;;2.95;;
58137;SDS011;43955;47.362;18.930;2023-03-12T00:45:06;5.28;;;2.33;;
58137;SDS011;43955;47.362;18.930;2023-03-12T00:47:34;5.97;;;2.62;;
58137;SDS011;43955;47.362;18.930;2023-03-12T00:50:01;4.50;;;2.65;;
58137;SDS011;43955;47.362;18.930;2023-03-12T00:52:29;4.68;;;2.50;;
58137;SDS011;43955;47.362;18.930;2023-03-12T00:54:56;5.90;;;2.47;;
58137;SDS011;43955;47.362;18.930;2023-03-12T00:57:24;4.10;;;2.28;;
58137;SDS011;43955;47.362;18.930;2023-03-12T00:59:52;6.05;;;2.70;;
58137;SDS011;43955;47.362;18.930;2023-03-12T01:02:19;5.32;;;2.92;;
58137;SDS011;43955;47.362;18.930;2023-03-12T01:04:47;5.07;;;3.00;;
58137;SDS011;43955;47.362;18.930;2023-03-12T01:07:14;5.32;;;2.90;;
58137;SDS011;43955;47.362;18.930;2023-03-12T01:09:41;5.47;;;2.25;;
58137;SDS011;43955;47.362;18.930;2023-03-12T01:12:08;6.15;;;2.60;;
58137;SDS011;43955;47.362;18.930;2023-03-12T01:14:36;6.25;;;2.65;;
58137;SDS011;43955;47.362;18.930;2023-03-12T01:17:03;4.70;;;2.97;;
58137;SDS011;43955;47.362;18.930;2023-03-12T01:19:30;6.90;;;3.00;;
58137;SDS011;43955;47.362;18.930;2023-03-12T01:21:57;4.82;;;2.47;;
58137;SDS011;43955;47.362;18.930;2023-03-12T01:24:25;5.37;;;2.95;;
58137;SDS011;43955;47.362;18.930;2023-03-12T01:26:52;5.45;;;2.92;;
58137;SDS011;43955;47.362;18.930;2023-03-12T01:29:19;5.37;;;2.42;;
58137;SDS011;43955;47.362;18.930;2023-03-12T01:31:46;5.37;;;2.40;;
58137;SDS011;43955;47.362;18.930;2023-03-12T01:34:14;5.22;;;2.80;;
58137;SDS011;43955;47.362;18.930;2023-03-12T01:36:41;4.62;;;2.65;;
58137;SDS011;43955;47.362;18.930;2023-03-12T01:39:08;4.18;;;2.12;;
58137;SDS011;43955;47.362;18.930;2023-03-12T01:41:36;5.85;;;2.85;;
58137;SDS011;43955;47.362;18.930;2023-03-12T01:44:03;5.62;;;2.83;;
58137;SDS011;43955;47.362;18.930;2023-03-12T01:46:35;5.82;;;2.50;;
58137;SDS011;43955;47.362;18.930;2023-03-12T01:49:26;4.40;;;2.67;;
58137;SDS011;43955;47.362;18.930;2023-03-12T01:54:29;5.85;;;2.92;;
58137;SDS011;43955;47.362;18.930;2023-03-12T01:57:01;5.45;;;3.03;;
58137;SDS011;43955;47.362;18.930;2023-03-12T01:59:32;5.65;;;2.85;;
58137;SDS011;43955;47.362;18.930;2023-03-12T02:02:03;5.70;;;2.85;;
58137;SDS011;43955;47.362;18.930;2023-03-12T02:04:31;6.35;;;3.08;;
58137;SDS011;43955;47.362;18.930;2023-03-12T02:07:07;8.38;;;3.15;;
58137;SDS011;43955;47.362;18.930;2023-03-12T02:09:41;5.37;;;3.20;;
58137;SDS011;43955;47.362;18.930;2023-03-12T02:12:09;6.07;;;3.03;;
58137;SDS011;43955;47.362;18.930;2023-03-12T02:14:37;5.70;;;3.28;;
58137;SDS011;43955;47.362;18.930;2023-03-12T02:17:05;5.93;;;3.22;;
58137;SDS011;43955;47.362;18.930;2023-03-12T02:22:18;6.43;;;3.62;;
58137;SDS011;43955;47.362;18.930;2023-03-12T02:24:49;8.13;;;4.28;;
58137;SDS011;43955;47.362;18.930;2023-03-12T02:27:20;6.33;;;3.60;;
58137;SDS011;43955;47.362;18.930;2023-03-12T02:29:48;6.45;;;3.33;;
58137;SDS011;43955;47.362;18.930;2023-03-12T02:32:19;5.90;;;3.85;;
58137;SDS011;43955;47.362;18.930;2023-03-12T02:34:49;6.40;;;3.62;;
58137;SDS011;43955;47.362;18.930;2023-03-12T02:37:17;7.95;;;3.80;;
58137;SDS011;43955;47.362;18.930;2023-03-12T02:39:46;6.62;;;3.50;;
58137;SDS011;43955;47.362;18.930;2023-03-12T02:45:07;6.62;;;3.67;;
58137;SDS011;43955;47.362;18.930;2023-03-12T02:47:35;6.20;;;3.60;;
58137;SDS011;43955;47.362;18.930;2023-03-12T02:50:03;6.68;;;3.87;;
58137;SDS011;43955;47.362;18.930;2023-03-12T02:52:31;6.22;;;3.72;;
58137;SDS011;43955;47.362;18.930;2023-03-12T02:55:01;8.27;;;3.80;;
58137;SDS011;43955;47.362;18.930;2023-03-12T02:57:29;8.23;;;3.97;;
58137;SDS011;43955;47.362;18.930;2023-03-12T02:59:56;7.35;;;3.37;;
58137;SDS011;43955;47.362;18.930;2023-03-12T03:02:23;10.02;;;4.18;;
58137;SDS011;43955;47.362;18.930;2023-03-12T03:04:50;7.28;;;4.15;;
58137;SDS011;43955;47.362;18.930;2023-03-12T03:07:18;7.03;;;3.65;;
58137;SDS011;43955;47.362;18.930;2023-03-12T03:09:45;6.62;;;3.47;;
58137;SDS011;43955;47.362;18.930;2023-03-12T03:12:12;6.25;;;3.97;;
58137;SDS011;43955;47.362;18.930;2023-03-12T03:14:40;6.62;;;3.62;;
58137;SDS011;43955;47.362;18.930;2023-03-12T03:17:07;8.65;;;4.47;;
58137;SDS011;43955;47.362;18.930;2023-03-12T03:19:35;7.95;;;4.05;;
58137;SDS011;43955;47.362;18.930;2023-03-12T03:22:02;8.68;;;4.37;;
58137;SDS011;43955;47.362;18.930;2023-03-12T03:24:29;8.55;;;4.57;;
58137;SDS011;43955;47.362;18.930;2023-03-12T03:26:57;8.40;;;3.92;;
58137;SDS011;43955;47.362;18.930;2023-03-12T03:29:24;7.32;;;4.37;;
58137;SDS011;43955;47.362;18.930;2023-03-12T03:31:52;9.20;;;3.70;;
58137;SDS011;43955;47.362;18.930;2023-03-12T03:34:19;8.23;;;4.10;;
58137;SDS011;43955;47.362;18.930;2023-03-12T03:36:46;7.93;;;4.60;;
58137;SDS011;43955;47.362;18.930;2023-03-12T03:39:14;8.32;;;4.15;;
58137;SDS011;43955;47.362;18.930;2023-03-12T03:41:41;8.52;;;4.95;;
58137;SDS011;43955;47.362;18.930;2023-03-12T03:44:08;7.93;;;3.90;;
58137;SDS011;43955;47.362;18.930;2023-03-12T03:46:36;9.02;;;4.18;;
58137;SDS011;43955;47.362;18.930;2023-03-12T03:49:04;6.30;;;4.32;;
58137;SDS011;43955;47.362;18.930;2023-03-12T03:51:32;9.32;;;3.92;;
58137;SDS011;43955;47.362;18.930;2023-03-12T03:53:59;9.25;;;4.62;;
58137;SDS011;43955;47.362;18.930;2023-03-12T03:56:27;9.98;;;4.80;;
58137;SDS011;43955;47.362;18.930;2023-03-12T03:58:55;7.28;;;4.40;;
58137;SDS011;43955;47.362;18.930;2023-03-12T04:01:25;7.72;;;4.45;;
58137;SDS011;43955;47.362;18.930;2023-03-12T04:03:54;9.43;;;4.32;;
58137;SDS011;43955;47.362;18.930;2023-03-12T04:06:21;7.15;;;3.87;;
58137;SDS011;43955;47.362;18.930;2023-03-12T04:08:48;8.40;;;4.87;;
58137;SDS011;43955;47.362;18.930;2023-03-12T04:11:17;8.15;;;3.78;;
58137;SDS011;43955;47.362;18.930;2023-03-12T04:13:47;7.10;;;4.40;;
58137;SDS011;43955;47.362;18.930;2023-03-12T04:16:15;8.90;;;4.62;;
58137;SDS011;43955;47.362;18.930;2023-03-12T04:18:43;12.25;;;4.95;;
58137;SDS011;43955;47.362;18.930;2023-03-12T04:21:12;10.75;;;4.82;;
58137;SDS011;43955;47.362;18.930;2023-03-12T04:23:39;9.00;;;4.87;;
58137;SDS011;43955;47.362;18.930;2023-03-12T04:26:07;11.12;;;4.80;;
58137;SDS011;43955;47.362;18.930;2023-03-12T04:28:35;7.70;;;4.22;;
58137;SDS011;43955;47.362;18.930;2023-03-12T04:31:06;12.23;;;5.28;;
58137;SDS011;43955;47.362;18.930;2023-03-12T04:33:35;8.35;;;4.87;;
58137;SDS011;43955;47.362;18.930;2023-03-12T04:36:04;11.30;;;4.97;;
58137;SDS011;43955;47.362;18.930;2023-03-12T04:38:32;10.98;;;5.10;;
58137;SDS011;43955;47.362;18.930;2023-03-12T04:41:02;9.73;;;4.90;;
58137;SDS011;43955;47.362;18.930;2023-03-12T04:43:34;9.35;;;4.68;;
58137;SDS011;43955;47.362;18.930;2023-03-12T04:46:02;9.55;;;5.40;;
58137;SDS011;43955;47.362;18.930;2023-03-12T04:48:29;10.05;;;5.12;;
58137;SDS011;43955;47.362;18.930;2023-03-12T04:50:57;11.23;;;4.72;;
58137;SDS011;43955;47.362;18.930;2023-03-12T04:53:24;9.25;;;4.93;;
58137;SDS011;43955;47.362;18.930;2023-03-12T04:55:52;8.68;;;4.78;;
58137;SDS011;43955;47.362;18.930;2023-03-12T04:58:19;11.50;;;5.43;;
58137;SDS011;43955;47.362;18.930;2023-03-12T05:00:48;8.52;;;4.60;;
58137;SDS011;43955;47.362;18.930;2023-03-12T05:03:16;12.52;;;5.62;;
58137;SDS011;43955;47.362;18.930;2023-03-12T05:05:44;10.07;;;4.87;;
58137;SDS011;43955;47.362;18.930;2023-03-12T05:08:12;11.05;;;5.50;;
58137;SDS011;43955;47.362;18.930;2023-03-12T05:10:39;8.93;;;5.18;;
58137;SDS011;43955;47.362;18.930;2023-03-12T05:13:13;14.30;;;5.93;;
58137;SDS011;43955;47.362;18.930;2023-03-12T05:15:45;9.85;;;6.07;;
58137;SDS011;43955;47.362;18.930;2023-03-12T05:18:13;10.13;;;5.43;;
58137;SDS011;43955;47.362;18.930;2023-03-12T05:20:41;10.73;;;4.57;;
58137;SDS011;43955;47.362;18.930;2023-03-12T05:23:08;12.00;;;6.00;;
58137;SDS011;43955;47.362;18.930;2023-03-12T05:25:39;11.40;;;5.57;;
58137;SDS011;43955;47.362;18.930;2023-03-12T05:28:07;10.95;;;6.22;;
58137;SDS011;43955;47.362;18.930;2023-03-12T05:30:35;11.63;;;6.20;;
58137;SDS011;43955;47.362;18.930;2023-03-12T05:33:02;10.40;;;5.25;;
58137;SDS011;43955;47.362;18.930;2023-03-12T05:35:30;11.35;;;5.50;;
58137;SDS011;43955;47.362;18.930;2023-03-12T05:37:57;10.35;;;5.20;;
58137;SDS011;43955;47.362;18.930;2023-03-12T05:40:25;11.70;;;6.10;;
58137;SDS011;43955;47.362;18.930;2023-03-12T05:42:52;13.23;;;6.40;;
58137;SDS011;43955;47.362;18.930;2023-03-12T05:45:20;10.60;;;5.35;;
58137;SDS011;43955;47.362;18.930;2023-03-12T05:47:47;15.32;;;5.78;;
58137;SDS011;43955;47.362;18.930;2023-03-12T05:50:15;11.90;;;6.05;;
58137;SDS011;43955;47.362;18.930;2023-03-12T05:52:43;12.02;;;6.53;;
58137;SDS011;43955;47.362;18.930;2023-03-12T05:55:10;11.18;;;7.97;;
58137;SDS011;43955;47.362;18.930;2023-03-12T05:57:38;10.25;;;6.62;;
58137;SDS011;43955;47.362;18.930;2023-03-12T06:00:05;14.07;;;9.48;;
58137;SDS011;43955;47.362;18.930;2023-03-12T06:02:38;10.85;;;5.75;;
58137;SDS011;43955;47.362;18.930;2023-03-12T06:05:08;12.60;;;5.95;;
58137;SDS011;43955;47.362;18.930;2023-03-12T06:07:36;12.23;;;5.87;;
58137;SDS011;43955;47.362;18.930;2023-03-12T06:10:03;9.40;;;5.22;;
58137;SDS011;43955;47.362;18.930;2023-03-12T06:12:31;12.15;;;5.93;;
58137;SDS011;43955;47.362;18.930;2023-03-12T06:14:59;12.88;;;4.85;;
58137;SDS011;43955;47.362;18.930;2023-03-12T06:17:27;11.43;;;5.95;;
58137;SDS011;43955;47.362;18.930;2023-03-12T06:19:56;11.45;;;5.78;;
58137;SDS011;43955;47.362;18.930;2023-03-12T06:22:23;12.27;;;6.57;;
58137;SDS011;43955;47.362;18.930;2023-03-12T06:24:51;9.23;;;4.72;;
58137;SDS011;43955;47.362;18.930;2023-03-12T06:27:18;9.43;;;5.07;;
58137;SDS011;43955;47.362;18.930;2023-03-12T06:29:45;12.95;;;4.80;;
58137;SDS011;43955;47.362;18.930;2023-03-12T06:32:16;18.48;;;5.47;;
58137;SDS011;43955;47.362;18.930;2023-03-12T06:34:44;10.85;;;4.10;;
58137;SDS011;43955;47.362;18.930;2023-03-12T06:37:11;8.85;;;4.15;;
58137;SDS011;43955;47.362;18.930;2023-03-12T06:39:38;11.95;;;5.28;;
58137;SDS011;43955;47.362;18.930;2023-03-12T06:42:06;12.13;;;5.93;;
58137;SDS011;43955;47.362;18.930;2023-03-12T06:44:33;10.35;;;5.00;;
58137;SDS011;43955;47.362;18.930;2023-03-12T06:47:00;8.80;;;5.03;;
58137;SDS011;43955;47.362;18.930;2023-03-12T06:49:28;8.43;;;4.40;;
58137;SDS011;43955;47.362;18.930;2023-03-12T06:51:58;11.57;;;4.68;;
58137;SDS011;43955;47.362;18.930;2023-03-12T06:54:25;9.02;;;4.15;;
58137;SDS011;43955;47.362;18.930;2023-03-12T06:56:52;10.95;;;4.95;;
58137;SDS011;43955;47.362;18.930;2023-03-12T06:59:20;9.85;;;5.28;;
58137;SDS011;43955;47.362;18.930;2023-03-12T07:01:47;7.85;;;4.37;;
58137;SDS011;43955;47.362;18.930;2023-03-12T07:04:15;10.10;;;5.55;;
58137;SDS011;43955;47.362;18.930;2023-03-12T07:06:42;9.80;;;4.62;;
58137;SDS011;43955;47.362;18.930;2023-03-12T07:09:09;10.10;;;5.00;;
58137;SDS011;43955;47.362;18.930;2023-03-12T07:11:37;9.90;;;5.12;;
58137;SDS011;43955;47.362;18.930;2023-03-12T07:14:04;9.77;;;4.50;;
58137;SDS011;43955;47.362;18.930;2023-03-12T07:16:31;9.32;;;4.80;;
58137;SDS011;43955;47.362;18.930;2023-03-12T07:18:59;12.63;;;4.90;;
58137;SDS011;43955;47.362;18.930;2023-03-12T07:21:26;7.03;;;4.60;;
58137;SDS011;43955;47.362;18.930;2023-03-12T07:23:54;9.43;;;4.60;;
58137;SDS011;43955;47.362;18.930;2023-03-12T07:26:22;12.18;;;5.68;;
58137;SDS011;43955;47.362;18.930;2023-03-12T07:28:49;8.07;;;4.30;;
58137;SDS011;43955;47.362;18.930;2023-03-12T07:31:16;7.70;;;4.60;;
58137;SDS011;43955;47.362;18.930;2023-03-12T07:33:43;9.27;;;5.03;;
58137;SDS011;43955;47.362;18.930;2023-03-12T07:36:11;7.87;;;4.50;;
58137;SDS011;43955;47.362;18.930;2023-03-12T07:38:38;9.05;;;4.12;;
58137;SDS011;43955;47.362;18.930;2023-03-12T07:41:05;14.77;;;5.62;;
58137;SDS011;43955;47.362;18.930;2023-03-12T07:43:32;8.73;;;4.57;;
58137;SDS011;43955;47.362;18.930;2023-03-12T07:46:00;10.82;;;4.93;;
58137;SDS011;43955;47.362;18.930;2023-03-12T07:48:27;9.65;;;3.90;;
58137;SDS011;43955;47.362;18.930;2023-03-12T07:50:55;10.25;;;4.72;;
58137;SDS011;43955;47.362;18.930;2023-03-12T07:53:22;11.32;;;5.18;;
58137;SDS011;43955;47.362;18.930;2023-03-12T07:55:49;8.57;;;4.43;;
58137;SDS011;43955;47.362;18.930;2023-03-12T07:58:17;7.72;;;4.57;;
58137;SDS011;43955;47.362;18.930;2023-03-12T08:00:44;13.75;;;5.43;;
58137;SDS011;43955;47.362;18.930;2023-03-12T08:03:11;10.13;;;5.18;;
58137;SDS011;43955;47.362;18.930;2023-03-12T08:05:39;9.13;;;4.68;;
58137;SDS011;43955;47.362;18.930;2023-03-12T08:08:07;8.93;;;4.87;;
58137;SDS011;43955;47.362;18.930;2023-03-12T08:10:35;13.02;;;5.40;;
58137;SDS011;43955;47.362;18.930;2023-03-12T08:13:02;10.38;;;4.72;;
58137;SDS011;43955;47.362;18.930;2023-03-12T08:15:30;10.35;;;4.97;;
58137;SDS011;43955;47.362;18.930;2023-03-12T08:17:57;10.55;;;4.65;;
58137;SDS011;43955;47.362;18.930;2023-03-12T08:20:25;10.63;;;4.37;;
58137;SDS011;43955;47.362;18.930;2023-03-12T08:22:52;10.48;;;5.10;;
58137;SDS011;43955;47.362;18.930;2023-03-12T08:25:20;8.20;;;3.62;;
58137;SDS011;43955;47.362;18.930;2023-03-12T08:27:47;9.45;;;4.28;;
58137;SDS011;43955;47.362;18.930;2023-03-12T08:30:14;10.38;;;4.28;;
58137;SDS011;43955;47.362;18.930;2023-03-12T08:32:45;7.57;;;3.78;;
58137;SDS011;43955;47.362;18.930;2023-03-12T08:35:12;11.48;;;4.70;;
58137;SDS011;43955;47.362;18.930;2023-03-12T08:37:39;7.57;;;4.00;;
58137;SDS011;43955;47.362;18.930;2023-03-12T08:40:07;7.85;;;3.70;;
58137;SDS011;43955;47.362;18.930;2023-03-12T08:42:39;7.00;;;3.70;;
58137;SDS011;43955;47.362;18.930;2023-03-12T08:45:08;7.35;;;3.97;;
58137;SDS011;43955;47.362;18.930;2023-03-12T08:47:37;8.50;;;4.55;;
58137;SDS011;43955;47.362;18.930;2023-03-12T08:50:07;8.60;;;3.58;;
58137;SDS011;43955;47.362;18.930;2023-03-12T08:52:37;6.60;;;4.03;;
58137;SDS011;43955;47.362;18.930;2023-03-12T08:55:04;6.12;;;4.05;;
58137;SDS011;43955;47.362;18.930;2023-03-12T08:57:32;7.75;;;3.87;;
58137;SDS011;43955;47.362;18.930;2023-03-12T08:59:59;7.90;;;3.83;;
58137;SDS011;43955;47.362;18.930;2023-03-12T09:02:27;8.95;;;4.03;;
58137;SDS011;43955;47.362;18.930;2023-03-12T09:04:54;9.30;;;4.32;;
58137;SDS011;43955;47.362;18.930;2023-03-12T09:07:21;7.57;;;3.97;;
58137;SDS011;43955;47.362;18.930;2023-03-12T09:09:49;8.15;;;4.07;;
58137;SDS011;43955;47.362;18.930;2023-03-12T09:12:16;8.90;;;4.30;;
58137;SDS011;43955;47.362;18.930;2023-03-12T09:14:44;9.18;;;4.82;;
58137;SDS011;43955;47.362;18.930;2023-03-12T09:17:31;10.27;;;4.78;;
58137;SDS011;43955;47.362;18.930;2023-03-12T09:19:58;8.77;;;4.22;;
58137;SDS011;43955;47.362;18.930;2023-03-12T09:22:27;8.75;;;3.92;;
58137;SDS011;43955;47.362;18.930;2023-03-12T09:24:55;6.90;;;3.30;;
58137;SDS011;43955;47.362;18.930;2023-03-12T09:27:23;8.85;;;4.18;;
58137;SDS011;43955;47.362;18.930;2023-03-12T09:29:52;7.05;;;3.40;;
58137;SDS011;43955;47.362;18.930;2023-03-12T09:32:27;6.30;;;3.28;;
58137;SDS011;43955;47.362;18.930;2023-03-12T09:34:54;7.85;;;3.95;;
58137;SDS011;43955;47.362;18.930;2023-03-12T09:37:21;6.12;;;3.22;;
58137;SDS011;43955;47.362;18.930;2023-03-12T09:39:50;7.37;;;3.28;;
58137;SDS011;43955;47.362;18.930;2023-03-12T09:42:22;6.22;;;3.10;;
58137;SDS011;43955;47.362;18.930;2023-03-12T09:44:52;7.17;;;4.07;;
58137;SDS011;43955;47.362;18.930;2023-03-12T09:47:28;5.65;;;2.90;;
58137;SDS011;43955;47.362;18.930;2023-03-12T09:49:58;6.93;;;2.62;;
58137;SDS011;43955;47.362;18.930;2023-03-12T09:52:44;6.78;;;2.90;;
58137;SDS011;43955;47.362;18.930;2023-03-12T09:55:18;5.37;;;2.83;;
58137;SDS011;43955;47.362;18.930;2023-03-12T09:57:47;5.28;;;3.00;;
58137;SDS011;43955;47.362;18.930;2023-03-12T10:00:19;5.28;;;2.72;;
58137;SDS011;43955;47.362;18.930;2023-03-12T10:06:07;6.25;;;3.30;;
58137;SDS011;43955;47.362;18.930;2023-03-12T10:11:30;13.80;;;5.60;;
58137;SDS011;43955;47.362;18.930;2023-03-12T10:14:05;9.32;;;4.03;;
58137;SDS011;43955;47.362;18.930;2023-03-12T10:22:30;6.70;;;3.03;;
58137;SDS011;43955;47.362;18.930;2023-03-12T10:27:33;5.50;;;3.22;;
58137;SDS011;43955;47.362;18.930;2023-03-12T10:30:12;6.95;;;3.58;;
58137;SDS011;43955;47.362;18.930;2023-03-12T10:32:55;8.65;;;4.62;;
58137;SDS011;43955;47.362;18.930;2023-03-12T10:40:21;7.45;;;3.05;;
58137;SDS011;43955;47.362;18.930;2023-03-12T10:42:54;28.70;;;4.30;;
58137;SDS011;43955;47.362;18.930;2023-03-12T10:45:24;4.37;;;2.83;;
58137;SDS011;43955;47.362;18.930;2023-03-12T10:48:03;16.30;;;3.35;;
58137;SDS011;43955;47.362;18.930;2023-03-12T10:50:38;6.00;;;3.15;;
58137;SDS011;43955;47.362;18.930;2023-03-12T10:55:57;6.57;;;3.07;;
58137;SDS011;43955;47.362;18.930;2023-03-12T11:00:55;5.72;;;2.70;;
58137;SDS011;43955;47.362;18.930;2023-03-12T11:03:24;8.57;;;3.30;;
58137;SDS011;43955;47.362;18.930;2023-03-12T11:05:52;5.15;;;2.78;;
58137;SDS011;43955;47.362;18.930;2023-03-12T11:08:25;6.55;;;3.30;;
58137;SDS011;43955;47.362;18.930;2023-03-12T11:11:03;4.90;;;2.55;;
58137;SDS011;43955;47.362;18.930;2023-03-12T11:13:38;3.42;;;1.85;;
58137;SDS011;43955;47.362;18.930;2023-03-12T11:18:55;4.93;;;2.35;;
58137;SDS011;43955;47.362;18.930;2023-03-12T11:21:26;4.65;;;2.05;;
58137;SDS011;43955;47.362;18.930;2023-03-12T11:26:27;5.05;;;2.50;;
58137;SDS011;43955;47.362;18.930;2023-03-12T11:31:55;3.87;;;2.00;;
58137;SDS011;43955;47.362;18.930;2023-03-12T11:34:43;2.78;;;1.70;;
58137;SDS011;43955;47.362;18.930;2023-03-12T11:46:03;4.75;;;2.47;;
58137;SDS011;43955;47.362;18.930;2023-03-12T11:48:43;10.13;;;3.17;;
58137;SDS011;43955;47.362;18.930;2023-03-12T11:51:16;6.37;;;2.65;;
58137;SDS011;43955;47.362;18.930;2023-03-12T11:54:05;4.37;;;2.72;;
58137;SDS011;43955;47.362;18.930;2023-03-12T11:56:48;7.20;;;2.45;;
58137;SDS011;43955;47.362;18.930;2023-03-12T12:02:29;6.45;;;2.42;;
58137;SDS011;43955;47.362;18.930;2023-03-12T12:05:17;3.72;;;2.12;;
58137;SDS011;43955;47.362;18.930;2023-03-12T12:10:52;3.67;;;1.65;;
58137;SDS011;43955;47.362;18.930;2023-03-12T12:14:02;4.43;;;1.42;;
58137;SDS011;43955;47.362;18.930;2023-03-12T12:16:50;3.85;;;1.87;;
58137;SDS011;43955;47.362;18.930;2023-03-12T12:19:26;5.65;;;2.60;;
58137;SDS011;43955;47.362;18.930;2023-03-12T12:27:23;2.85;;;1.40;;
58137;SDS011;43955;47.362;18.930;2023-03-12T12:35:38;5.95;;;2.33;;
58137;SDS011;43955;47.362;18.930;2023-03-12T12:41:00;4.50;;;2.08;;
58137;SDS011;43955;47.362;18.930;2023-03-12T12:46:25;5.72;;;2.83;;
58137;SDS011;43955;47.362;18.930;2023-03-12T12:48:56;4.03;;;2.20;;
58137;SDS011;43955;47.362;18.930;2023-03-12T12:51:30;5.93;;;2.80;;
58137;SDS011;43955;47.362;18.930;2023-03-12T13:02:18;3.80;;;2.35;;
58137;SDS011;43955;47.362;18.930;2023-03-12T13:04:47;3.85;;;2.17;;
58137;SDS011;43955;47.362;18.930;2023-03-12T13:12:13;6.15;;;2.45;;
58137;SDS011;43955;47.362;18.930;2023-03-12T13:14:48;4.70;;;1.70;;
58137;SDS011;43955;47.362;18.930;2023-03-12T13:17:35;3.95;;;1.50;;
58137;SDS011;43955;47.362;18.930;2023-03-12T13:20:23;2.60;;;1.60;;
58137;SDS011;43955;47.362;18.930;2023-03-12T13:26:14;3.75;;;1.70;;
58137;SDS011;43955;47.362;18.930;2023-03-12T13:31:36;3.37;;;2.15;;
58137;SDS011;43955;47.362;18.930;2023-03-12T13:36:32;4.05;;;1.70;;
58137;SDS011;43955;47.362;18.930;2023-03-12T13:41:36;3.55;;;1.80;;
58137;SDS011;43955;47.362;18.930;2023-03-12T13:49:36;6.03;;;1.87;;
58137;SDS011;43955;47.362;18.930;2023-03-12T13:57:44;3.95;;;1.40;;
58137;SDS011;43955;47.362;18.930;2023-03-12T14:02:57;10.70;;;2.10;;
58137;SDS011;43955;47.362;18.930;2023-03-12T14:05:26;4.15;;;2.25;;
58137;SDS011;43955;47.362;18.930;2023-03-12T14:10:32;5.28;;;1.73;;
58137;SDS011;43955;47.362;18.930;2023-03-12T14:13:21;4.25;;;1.92;;
58137;SDS011;43955;47.362;18.930;2023-03-12T14:18:58;27.98;;;3.25;;
58137;SDS011;43955;47.362;18.930;2023-03-12T14:21:27;2.70;;;1.60;;
58137;SDS011;43955;47.362;18.930;2023-03-12T14:23:59;3.70;;;1.77;;
58137;SDS011;43955;47.362;18.930;2023-03-12T14:26:29;3.85;;;1.60;;
58137;SDS011;43955;47.362;18.930;2023-03-12T14:29:00;4.12;;;1.90;;
58137;SDS011;43955;47.362;18.930;2023-03-12T14:31:30;21.40;;;3.17;;
58137;SDS011;43955;47.362;18.930;2023-03-12T14:33:59;3.15;;;1.40;;
58137;SDS011;43955;47.362;18.930;2023-03-12T14:36:32;4.82;;;1.45;;
58137;SDS011;43955;47.362;18.930;2023-03-12T14:39:09;2.90;;;1.62;;
58137;SDS011;43955;47.362;18.930;2023-03-12T14:42:08;3.20;;;1.50;;
58137;SDS011;43955;47.362;18.930;2023-03-12T14:44:36;5.93;;;2.00;;
58137;SDS011;43955;47.362;18.930;2023-03-12T14:47:06;5.35;;;1.73;;
58137;SDS011;43955;47.362;18.930;2023-03-12T14:49:43;4.45;;;1.70;;
58137;SDS011;43955;47.362;18.930;2023-03-12T14:52:12;7.10;;;2.40;;
58137;SDS011;43955;47.362;18.930;2023-03-12T14:54:51;2.78;;;1.58;;
58137;SDS011;43955;47.362;18.930;2023-03-12T14:57:19;3.03;;;1.58;;
58137;SDS011;43955;47.362;18.930;2023-03-12T14:59:54;3.75;;;1.83;;
58137;SDS011;43955;47.362;18.930;2023-03-12T15:02:23;2.80;;;1.65;;
58137;SDS011;43955;47.362;18.930;2023-03-12T15:04:52;8.32;;;3.33;;
58137;SDS011;43955;47.362;18.930;2023-03-12T15:07:23;5.57;;;2.15;;
58137;SDS011;43955;47.362;18.930;2023-03-12T15:09:57;9.70;;;3.70;;
58137;SDS011;43955;47.362;18.930;2023-03-12T15:12:25;11.10;;;3.95;;
58137;SDS011;43955;47.362;18.930;2023-03-12T15:14:59;4.97;;;2.55;;
58137;SDS011;43955;47.362;18.930;2023-03-12T15:17:29;6.68;;;2.22;;
58137;SDS011;43955;47.362;18.930;2023-03-12T15:19:57;2.92;;;1.90;;
58137;SDS011;43955;47.362;18.930;2023-03-12T15:22:25;7.57;;;2.85;;
58137;SDS011;43955;47.362;18.930;2023-03-12T15:24:53;4.93;;;2.28;;
58137;SDS011;43955;47.362;18.930;2023-03-12T15:29:55;3.92;;;1.90;;
58137;SDS011;43955;47.362;18.930;2023-03-12T15:32:24;4.22;;;2.37;;
58137;SDS011;43955;47.362;18.930;2023-03-12T15:34:52;4.97;;;2.42;;
58137;SDS011;43955;47.362;18.930;2023-03-12T15:37:26;5.37;;;2.08;;
58137;SDS011;43955;47.362;18.930;2023-03-12T15:40:01;4.70;;;2.65;;
58137;SDS011;43955;47.362;18.930;2023-03-12T15:42:42;9.50;;;2.70;;
58137;SDS011;43955;47.362;18.930;2023-03-12T15:45:20;10.02;;;3.67;;
58137;SDS011;43955;47.362;18.930;2023-03-12T15:47:52;8.63;;;3.40;;
58137;SDS011;43955;47.362;18.930;2023-03-12T15:50:30;14.05;;;4.62;;
58137;SDS011;43955;47.362;18.930;2023-03-12T15:53:23;4.82;;;2.20;;
58137;SDS011;43955;47.362;18.930;2023-03-12T15:55:53;4.37;;;2.20;;
58137;SDS011;43955;47.362;18.930;2023-03-12T15:58:31;4.35;;;2.37;;
58137;SDS011;43955;47.362;18.930;2023-03-12T16:01:07;10.50;;;3.78;;
58137;SDS011;43955;47.362;18.930;2023-03-12T16:03:39;8.20;;;3.78;;
58137;SDS011;43955;47.362;18.930;2023-03-12T16:06:12;9.65;;;3.97;;
58137;SDS011;43955;47.362;18.930;2023-03-12T16:08:48;39.47;;;7.00;;
58137;SDS011;43955;47.362;18.930;2023-03-12T16:11:20;65.82;;;22.35;;
58137;SDS011;43955;47.362;18.930;2023-03-12T16:13:51;52.88;;;15.30;;
58137;SDS011;43955;47.362;18.930;2023-03-12T16:16:20;17.85;;;7.90;;
58137;SDS011;43955;47.362;18.930;2023-03-12T16:18:47;21.37;;;9.82;;
58137;SDS011;43955;47.362;18.930;2023-03-12T16:21:15;30.08;;;9.20;;
58137;SDS011;43955;47.362;18.930;2023-03-12T16:23:42;45.20;;;10.82;;
58137;SDS011;43955;47.362;18.930;2023-03-12T16:26:10;18.58;;;6.22;;
58137;SDS011;43955;47.362;18.930;2023-03-12T16:28:37;30.10;;;7.47;;
58137;SDS011;43955;47.362;18.930;2023-03-12T16:31:14;16.08;;;5.55;;
58137;SDS011;43955;47.362;18.930;2023-03-12T16:33:42;27.42;;;9.93;;
58137;SDS011;43955;47.362;18.930;2023-03-12T16:36:11;78.18;;;25.45;;
58137;SDS011;43955;47.362;18.930;2023-03-12T16:38:40;84.20;;;27.83;;
58137;SDS011;43955;47.362;18.930;2023-03-12T16:41:26;61.37;;;15.73;;
58137;SDS011;43955;47.362;18.930;2023-03-12T16:43:54;51.88;;;24.17;;
58137;SDS011;43955;47.362;18.930;2023-03-12T16:46:23;42.05;;;18.52;;